大阪市立科学館学芸員 江越航のホームページ  大阪市立科学館 学芸員

 江越 航のホームページ

大阪市立科学館 屋上ライブカメラ

現在の科学館上空の様子
ライブカメラ

環境データ

過去24時間の環境変化
環境トレンド
凡例
過去1週間の環境変化
気象データ

数値計算データ(NOAA)

海面更正気圧 地表付近の風
海面更正気圧 地表付近の風
850hPa面の温度 850hPa面の相対湿度
850hPa面の温度 850hPa面の相対湿度

定時航空実況気象通報式(METAR)

大阪空港 定時航空実況気象通報式
23日20時00分(JST)
RJOO 231100Z 33008KT 9999 FEW030 BKN/// 26/21 Q1016 RMK 1CU030 A3000
CU 積雲
雲量 :1/8
雲底高度 :3000 feet

関西国際空港 定時航空実況気象通報式
24日03時30分(JST)
RJBB 231830Z AUTO 05010KT 9999 FEW034 23/19 Q1018 NOSIG

気象庁XML 受信データ

大阪府府県天気予報
2021-09-24T05:00:00+09:00
今日 晴れ 時々 くもり

府県天気概況
2021-09-24T04:35:00+09:00
 大阪府は、高気圧に覆われておおむね晴れています。

 24日の大阪府は、高気圧に覆われておおむね晴れるでしょう。

 25日の大阪府は、高気圧に覆われておおむね晴れる見込みです。

【近畿地方】
 近畿地方は、高気圧に覆われておおむね晴れています。

 24日の近畿地方は、中部や南部では高気圧に覆われておおむね晴れますが、北部では湿った空気の影響でおおむね曇り、昼前まで雨の降る所があるでしょう。

 25日の近畿地方は、中部では高気圧に覆われておおむね晴れますが、南部では湿った空気の影響で昼過ぎから曇り、雨の降る所がある見込みです。北部では湿った空気の影響でおおむね曇るでしょう。